• Join FlightAware (Why Join?)
  • Login
  • US Flag 
07:54PM EDT


 

Airport Tracker/Info


-or-


 

Live Flight TrackerFlight Track Log ✈ UAL582 ✈ 11-Jul-2013 ✈ KORD - KTPA

Flight Track Log - Related Links

Times and Time Zones

All times are in EDT time to prevent confusion due to time zone crossing. See the UAL582 flight status page for this flight to view local times or setup timezone preferences in your user account.

Time Position Orientation Groundspeed Altitude Reporting Facility
EDT Latitude Longitude Course Direction KTS MPH feet Rate Location/Type
08:43PM 41.9333 -87.8333 180° South 221 254 3,200  Level Chicago TRACON
08:44PM 41.8414 -87.7783 156° South 282 325 5,000 720 Climbing Chicago Center
08:45PM 41.7611 -87.7750 178° South 287 330 5,000 1,740 Level Chicago Center
08:46PM 41.5162 -87.6920 176° South  Level Estimated
08:46PM 41.6769 -87.7914 188° South 309 356 8,700  Level Chicago Center
08:47PM 41.3997 -87.6388 187° South  Level Estimated
08:47PM 41.5911 -87.8200 194° South 317 365 12,100  Level Chicago Center
08:48PM 41.2833 -87.5859 180° South  Level Estimated
08:48PM 41.4869 -87.8531 193° South 386 444 13,200  Level Chicago Center
08:49PM 41.3622 -87.8836 190° South 443 510 16,400 2,820 Climbing Chicago Center
08:51PM 41.2289 -87.8917 183° South 469 540 19,100 2,820 Climbing Chicago Center
08:52PM 41.0647 -87.8864 179° South 491 565 22,300 2,640 Climbing Chicago Center
08:53PM 40.9222 -87.8808 178° South 508 585 24,600 1,980 Climbing Chicago Center
08:54PM 40.7761 -87.8764 179° South 523 602 26,400 1,380 Climbing Chicago Center
08:55PM 40.6281 -87.8725 179° South 531 611 27,500 1,140 Climbing Chicago Center
08:56PM 40.4844 -87.8683 179° South 523 602 28,800 1,200 Climbing Chicago Center
08:57PM 40.3400 -87.8631 178° South 521 600 30,000 1,200 Climbing Chicago Center
08:58PM 40.1681 -87.8592 179° South 516 594 31,300 1,080 Climbing Chicago Center
08:58PM 40.0797 -87.8533 177° South 515 593 31,900 840 Climbing Indianapolis Center
08:59PM 39.9397 -87.8186 169° South 516 594 32,800 780 Climbing Indianapolis Center
09:01PM 39.8031 -87.7728 166° South 514 592 33,600 720 Climbing Indianapolis Center
09:02PM 39.6625 -87.7308 167° South 518 596 34,300 660 Climbing Indianapolis Center
09:03PM 39.4931 -87.6786 167° South 523 602 35,000 300 Climbing Indianapolis Center
09:04PM 39.3525 -87.6350 167° South 524 603 35,000  Level Indianapolis Center
09:05PM 39.2119 -87.5908 166° South 523 602 35,000  Level Indianapolis Center
09:06PM 39.0661 -87.5469 167° South 529 609 35,000  Level Indianapolis Center
09:07PM 38.9225 -87.5019 166° South 528 608 35,000  Level Indianapolis Center
09:08PM 38.7792 -87.4586 167° South 528 608 35,000  Level Indianapolis Center
09:09PM 38.6358 -87.4147 167° South 529 609 35,000  Level Indianapolis Center
09:10PM 38.4667 -87.3650 167° South 522 601 35,000  Level Indianapolis Center
09:11PM 38.3264 -87.3233 167° South 523 602 35,000  Level Indianapolis Center
09:12PM 38.1869 -87.2817 167° South 524 603 35,000  Level Indianapolis Center
09:13PM 38.0469 -87.2528 171° South 515 593 35,000  Level Indianapolis Center
09:14PM 37.9069 -87.2233 171° South 512 589 35,000  Level Indianapolis Center
09:15PM 37.7661 -87.1933 170° South 514 592 35,000  Level Indianapolis Center
09:16PM 37.5972 -87.1564 170° South 512 589 35,000  Level Indianapolis Center
09:17PM 37.4694 -87.1283 170° South 512 589 35,000  Level Indianapolis Center
09:18PM 37.3261 -87.0944 169° South 517 595 35,000  Level Indianapolis Center
09:19PM 37.1850 -87.0428 164° South 524 603 35,000  Level Indianapolis Center
09:20PM 37.0231 -86.9703 160° South 526 605 35,000  Level Indianapolis Center
09:21PM 36.8858 -86.9097 161° South 519 597 35,000  Level Indianapolis Center
09:22PM 36.7481 -86.8497 161° South 518 596 35,000  Level Indianapolis Center
09:23PM 36.6114 -86.7906 161° South 513 590 35,000  Level Indianapolis Center
09:24PM 36.4769 -86.7314 161° South 502 578 35,000  Level Indianapolis Center
09:25PM 36.3389 -86.6728 161° South 506 582 35,000  Level Indianapolis Center
09:26PM 36.2019 -86.6144 161° South 507 583 35,000  Level Indianapolis Center
09:27PM 36.0669 -86.5589 162° South 505 581 35,000  Level Indianapolis Center
09:28PM 35.9086 -86.4922 161° South 504 580 35,000  Level Memphis Center
09:29PM 35.7775 -86.4369 161° South 504 580 35,000  Level Memphis Center
09:31PM 35.5444 -86.3383 161° South 524 603 35,000  Level Atlanta Center
09:32PM 35.4161 -86.2839 161° South 506 582 35,000 120 Level Atlanta Center
09:33PM 35.2836 -86.2319 162° South 500 575 35,300 540 Climbing Atlanta Center
09:34PM 35.1614 -86.1753 159° South 490 564 36,100 660 Climbing Atlanta Center
09:35PM 35.0433 -86.1317 163° South 485 558 36,700 420 Climbing Atlanta Center
09:36PM 34.9003 -86.0675 160° South 485 558 37,000 120 Climbing Atlanta Center
09:37PM 34.7822 -86.0164 160° South 492 566 37,000  Level Atlanta Center
09:38PM 34.6517 -85.9656 162° South 497 572 37,000  Level Atlanta Center
09:39PM 34.5231 -85.9119 161° South 497 572 37,000  Level Atlanta Center
09:40PM 34.3922 -85.8589 161° South 497 572 37,000  Level Atlanta Center
09:41PM 34.2492 -85.8006 161° South 497 572 37,000  Level Atlanta Center
09:42PM 34.1433 -85.7656 165° South 466 536 37,000  Level Atlanta Center
09:43PM 34.0167 -85.7156 162° South 466 536 37,000  Level Atlanta Center
09:44PM 33.8878 -85.6628 161° South 483 556 37,000  Level Atlanta Center
09:45PM 33.7633 -85.6131 162° South 483 556 37,000  Level Atlanta Center
09:46PM 33.6347 -85.5608 161° South 476 548 37,000  Level Atlanta Center
09:47PM 33.4933 -85.5061 162° South 481 554 37,000  Level Atlanta Center
09:48PM 33.3644 -85.4542 161° South 481 554 37,000  Level Atlanta Center
09:49PM 33.2378 -85.4047 162° South 481 554 37,000  Level Atlanta Center
09:50PM 33.1150 -85.3558 162° South 476 548 37,000  Level Atlanta Center
09:51PM 32.9906 -85.3019 160° South 476 548 37,000  Level Atlanta Center
09:52PM 32.8656 -85.2531 162° South 476 548 37,000  Level Atlanta Center
09:53PM 32.7389 -85.2019 161° South 481 554 37,000  Level Atlanta Center
09:54PM 32.6119 -85.1511 161° South 481 554 37,000  Level Atlanta Center
09:55PM 32.4831 -85.1100 165° South 481 554 37,100  Climbing Atlanta Center
09:56PM 32.3703 -85.0939 173° South 471 542 37,000 -60 Descending Atlanta Center
09:57PM 32.2244 -85.0822 176° South 465 535 37,000  Level Atlanta Center
09:59PM 32.0375 -85.0542 173° South 480 552 37,000  Level Jacksonville Center
10:00PM 31.9103 -85.0414 175° South 480 552 37,000  Level Jacksonville Center
10:01PM 31.7811 -85.0286 175° South 475 547 37,000  Level Jacksonville Center
10:02PM 31.6497 -85.0158 175° South 475 547 37,000  Level Jacksonville Center
10:03PM 31.5208 -84.9908 171° South 475 547 37,000  Level Jacksonville Center
10:04PM 31.4050 -84.9153 151° Southeast 475 547 37,000  Level Jacksonville Center
10:05PM 31.2853 -84.8372 151° Southeast 475 547 37,000  Level Jacksonville Center
10:06PM 31.1694 -84.7622 151° Southeast 480 552 37,000  Level Jacksonville Center
10:07PM 31.0514 -84.6869 151° Southeast 480 552 37,000  Level Jacksonville Center
10:08PM 30.9378 -84.6122 151° Southeast 480 552 37,000  Level Jacksonville Center
10:09PM 30.8217 -84.5350 150° Southeast 475 547 37,000  Level Jacksonville Center
10:10PM 30.7036 -84.4606 152° Southeast 475 547 37,000  Level Jacksonville Center
10:11PM 30.5878 -84.3814 150° Southeast 475 547 37,000  Level Jacksonville Center
10:12PM 30.4861 -84.3147 151° Southeast 475 547 37,000  Level Jacksonville Center
10:13PM 30.3681 -84.2383 151° Southeast 475 547 37,000  Level Jacksonville Center
10:14PM 30.2436 -84.1622 152° Southeast 475 547 37,000  Level Jacksonville Center
10:15PM 30.1272 -84.0861 151° Southeast 470 541 37,000  Level Jacksonville Center
10:16PM 30.0131 -84.0103 150° Southeast 470 541 37,000  Level Jacksonville Center
10:17PM 29.8969 -83.9397 152° Southeast 470 541 37,000 -600 Level Jacksonville Center
10:18PM 29.7806 -83.8642 151° Southeast 475 547 35,800 -2,040 Descending Jacksonville Center
10:19PM 29.6661 -83.7936 152° Southeast 470 541 33,000 -2,460 Descending Jacksonville Center
10:20PM 29.5519 -83.7211 151° Southeast 470 541 30,900 -2,160 Descending Jacksonville Center
10:21PM 29.4439 -83.6508 150° Southeast 465 535 28,700 -1,920 Descending Jacksonville Center
10:22PM 29.3356 -83.5858 152° Southeast 448 516 27,100 -1,080 Descending Jacksonville Center
10:23PM 29.2358 -83.5208 150° Southeast 437 503 26,600 -780 Descending Jacksonville Center
10:24PM 29.1358 -83.4561 151° Southeast 426 490 25,600 -1,200 Descending Jacksonville Center
10:25PM 29.0442 -83.4008 152° Southeast 403 464 24,200 -1,560 Descending Jacksonville Center
10:26PM 28.9567 -83.3458 151° Southeast 379 436 22,500 -1,680 Descending Jacksonville Center
10:27PM 28.8714 -83.2861 148° Southeast 367 422 20,900 -1,680 Descending Jacksonville Center
10:28PM 28.7000 -83.1833 152° Southeast 344 396 17,600 -1,680 Descending Tampa TRACON
10:29PM 28.6167 -83.1333 152° Southeast 337 388 16,000 -1,560 Descending Tampa TRACON
10:30PM 28.5500 -83.0833 147° Southeast 327 376 14,500 -1,620 Descending Tampa TRACON
10:31PM 28.4667 -83.0333 152° Southeast 320 368 12,800 -1,620 Descending Tampa TRACON
10:33PM 28.3833 -82.9833 152° Southeast 312 359 11,200 -1,500 Descending Tampa TRACON
10:34PM 28.3333 -82.9167 130° Southeast 304 350 9,700 -1,560 Descending Tampa TRACON
10:34PM 28.3000 -82.8333 114° Southeast 298 343 8,300 -1,440 Descending Tampa TRACON
10:35PM 28.2500 -82.7500 124° Southeast 288 331 7,000 -1,620 Descending Tampa TRACON
10:37PM 28.2000 -82.6833 130° Southeast 276 318 4,900 -1,680 Descending Tampa TRACON
10:37PM 28.1500 -82.6333 139° Southeast 273 314 3,700 -1,380 Descending Tampa TRACON